Time;durP1;ratioP1;P1;durP2;ratioP2;P2;SDS_P1;SDS_P2;PMS_P1;PMS_P2;Temp;Humidity;BMP_temperature;BMP_pressure;BME280_temperature;BME280_humidity;BME280_pressure;Samples;Min_cycle;Max_cycle;Signal;HPM_P1;HPM_P2
2023/05/13 00:00:25;;;;;;;1.90;1.80;;;22.40;81.70;;;;;;4985543;28;20461;-78
2023/05/13 00:02:51;;;;;;;2.23;2.13;;;22.40;81.70;;;;;;4991076;28;20875;-78
2023/05/13 00:05:18;;;;;;;2.30;2.10;;;22.40;81.70;;;;;;4988178;28;20777;-78
2023/05/13 00:07:45;;;;;;;2.07;1.93;;;22.40;81.80;;;;;;4987906;28;20453;-78
2023/05/13 00:10:15;;;;;;;3.27;1.90;;;22.30;81.80;;;;;;4984574;28;20463;-78
2023/05/13 00:12:42;;;;;;;2.20;1.90;;;22.30;81.70;;;;;;4995564;28;20552;-77
2023/05/13 00:15:10;;;;;;;1.97;1.87;;;22.30;81.70;;;;;;4988414;28;21748;-78
2023/05/13 00:17:36;;;;;;;2.17;1.97;;;22.30;81.80;;;;;;4988501;28;20820;-80
2023/05/13 00:20:04;;;;;;;2.40;2.20;;;22.30;81.80;;;;;;4984363;28;20538;-78
2023/05/13 00:22:30;;;;;;;2.60;2.07;;;22.30;81.90;;;;;;4989100;28;20456;-80
2023/05/13 00:24:57;;;;;;;2.10;1.90;;;22.30;81.90;;;;;;4982693;28;20978;-79
2023/05/13 00:27:25;;;;;;;3.03;1.80;;;22.30;81.90;;;;;;4989031;28;20860;-77
2023/05/13 00:29:52;;;;;;;1.57;1.47;;;22.30;82.80;;;;;;4975768;28;20973;-79
2023/05/13 00:32:19;;;;;;;2.00;1.90;;;22.30;82.00;;;;;;4986154;28;20460;-79
2023/05/13 00:34:45;;;;;;;1.60;1.50;;;22.30;82.00;;;;;;4987787;28;20472;-78
2023/05/13 00:37:13;;;;;;;2.33;2.13;;;22.30;82.00;;;;;;4985544;28;20921;-76
2023/05/13 00:39:40;;;;;;;4.23;3.70;;;22.30;82.00;;;;;;4991036;28;20496;-78
2023/05/13 00:42:10;;;;;;;2.17;2.00;;;22.20;81.90;;;;;;4985735;28;20462;-78
2023/05/13 00:44:38;;;;;;;2.60;2.40;;;22.20;82.00;;;;;;4984057;28;20495;-79
2023/05/13 00:47:05;;;;;;;1.77;1.63;;;22.20;82.10;;;;;;4981037;28;20497;-78
2023/05/13 00:49:32;;;;;;;2.03;1.83;;;22.20;82.10;;;;;;4995730;28;20966;-77
2023/05/13 00:51:59;;;;;;;2.43;2.23;;;22.20;82.10;;;;;;4983987;28;20468;-78
2023/05/13 00:54:26;;;;;;;2.43;2.03;;;22.20;82.10;;;;;;4982612;28;20468;-78
2023/05/13 00:56:55;;;;;;;2.50;2.30;;;22.20;82.10;;;;;;4990937;28;20959;-78
2023/05/13 00:59:23;;;;;;;2.43;2.27;;;22.20;82.20;;;;;;4990360;28;20485;-77
2023/05/13 01:01:59;;;;;;;2.37;2.17;;;22.20;82.30;;;;;;4983125;28;20463;-77
2023/05/13 01:04:37;;;;;;;1.87;1.77;;;22.10;82.20;;;;;;4986898;28;20828;-76
2023/05/13 01:07:11;;;;;;;2.60;2.40;;;22.20;82.30;;;;;;4991533;28;20480;-78
2023/05/13 01:09:48;;;;;;;1.97;1.87;;;22.10;82.20;;;;;;4986571;28;20457;-78
2023/05/13 01:12:20;;;;;;;2.07;1.87;;;22.20;82.40;;;;;;4990589;28;20478;-78
2023/05/13 01:14:52;;;;;;;2.20;2.00;;;22.20;82.40;;;;;;4987870;28;20497;-79
2023/05/13 01:17:25;;;;;;;2.40;2.20;;;22.10;82.30;;;;;;4990587;28;20578;-78
2023/05/13 01:19:55;;;;;;;1.90;1.80;;;22.20;82.50;;;;;;4992491;28;20465;-80
2023/05/13 01:22:23;;;;;;;2.27;2.07;;;22.20;82.50;;;;;;4998684;28;20471;-76
2023/05/13 01:24:50;;;;;;;2.20;2.10;;;22.20;82.50;;;;;;4987876;28;20468;-79
2023/05/13 01:27:17;;;;;;;1.80;1.70;;;22.10;82.40;;;;;;4992663;28;20487;-75
2023/05/13 01:29:45;;;;;;;1.77;1.63;;;22.10;82.40;;;;;;4985697;28;21188;-76
2023/05/13 01:32:12;;;;;;;1.90;1.80;;;22.10;82.50;;;;;;4991375;28;20456;-76
2023/05/13 01:34:39;;;;;;;2.40;2.20;;;22.10;82.50;;;;;;4988005;28;20464;-78
2023/05/13 01:37:06;;;;;;;2.80;2.60;;;22.10;82.70;;;;;;4995841;28;20488;-79
2023/05/13 01:39:37;;;;;;;5.63;2.87;;;22.10;83.10;;;;;;4989329;28;20468;-77
2023/05/13 01:42:04;;;;;;;3.10;2.90;;;22.00;82.30;;;;;;4991093;28;20465;-76
2023/05/13 01:44:31;;;;;;;2.53;2.33;;;22.00;82.60;;;;;;4986013;28;20456;-81
2023/05/13 01:46:58;;;;;;;1.80;1.70;;;22.00;82.90;;;;;;4984540;28;20862;-77
2023/05/13 01:49:24;;;;;;;2.77;2.53;;;22.00;83.00;;;;;;4988415;28;20472;-76
2023/05/13 01:51:51;;;;;;;2.83;2.40;;;22.00;83.20;;;;;;4991859;28;20472;-80
2023/05/13 01:54:18;;;;;;;2.60;2.40;;;22.00;83.20;;;;;;4991031;28;20460;-77
2023/05/13 01:56:46;;;;;;;2.40;2.20;;;22.00;83.20;;;;;;4991767;28;20468;-80
2023/05/13 01:59:13;;;;;;;2.40;2.20;;;22.00;83.40;;;;;;4996496;28;20956;-78
2023/05/13 02:01:40;;;;;;;2.20;2.00;;;22.00;83.40;;;;;;4981855;28;20468;-78
2023/05/13 02:04:07;;;;;;;2.40;2.20;;;22.00;83.40;;;;;;4990702;28;20530;-77
2023/05/13 02:06:33;;;;;;;1.83;1.73;;;22.00;83.50;;;;;;4988938;28;21050;-77
2023/05/13 02:09:00;;;;;;;2.53;2.33;;;22.00;83.60;;;;;;4990341;28;20472;-77
2023/05/13 02:11:27;;;;;;;2.17;2.07;;;22.00;83.60;;;;;;4987158;28;20461;-78
2023/05/13 02:13:55;;;;;;;2.00;1.90;;;22.00;83.60;;;;;;4987584;28;20813;-76
2023/05/13 02:16:22;;;;;;;2.17;2.07;;;21.90;83.50;;;;;;4988121;28;20453;-77
2023/05/13 02:18:48;;;;;;;2.40;2.20;;;22.00;83.70;;;;;;4987102;28;20946;-79
2023/05/13 02:21:15;;;;;;;2.40;2.20;;;22.00;83.80;;;;;;4989516;28;20475;-77
2023/05/13 02:23:42;;;;;;;2.07;1.90;;;21.90;83.70;;;;;;4985176;28;21966;-77
2023/05/13 02:26:08;;;;;;;2.53;2.33;;;22.00;83.90;;;;;;4984821;28;20832;-77
2023/05/13 02:28:35;;;;;;;2.33;2.13;;;22.00;83.90;;;;;;4982317;28;20476;-79
2023/05/13 02:31:03;;;;;;;2.37;2.17;;;21.90;83.80;;;;;;4984226;28;20460;-77
2023/05/13 02:33:30;;;;;;;2.27;2.07;;;21.90;83.90;;;;;;4989992;28;20478;-78
2023/05/13 02:35:56;;;;;;;2.20;2.00;;;21.90;83.90;;;;;;4989389;28;20964;-77
2023/05/13 02:38:23;;;;;;;2.33;2.13;;;21.90;84.00;;;;;;4992354;28;20833;-76
2023/05/13 02:40:50;;;;;;;2.47;2.27;;;21.90;84.00;;;;;;4995672;28;20461;-79
2023/05/13 02:43:17;;;;;;;2.10;1.90;;;21.90;84.00;;;;;;4997143;28;20437;-77
2023/05/13 02:45:44;;;;;;;2.37;2.17;;;21.90;84.10;;;;;;4985259;28;20475;-78
2023/05/13 02:48:12;;;;;;;2.53;2.33;;;21.90;84.20;;;;;;4983638;28;21184;-76
2023/05/13 02:50:39;;;;;;;2.30;2.10;;;21.90;84.20;;;;;;4991642;28;20464;-78
2023/05/13 02:53:06;;;;;;;2.40;2.20;;;21.90;84.20;;;;;;4984466;28;20903;-77
2023/05/13 02:55:33;;;;;;;2.37;2.17;;;21.90;84.20;;;;;;4988866;28;20825;-78
2023/05/13 02:57:59;;;;;;;2.37;2.17;;;21.90;84.20;;;;;;4993637;28;20959;-76
2023/05/13 03:00:26;;;;;;;2.53;2.33;;;21.90;84.30;;;;;;4982537;28;20909;-81
2023/05/13 03:02:53;;;;;;;2.70;2.50;;;21.90;84.30;;;;;;4990030;28;20944;-92
2023/05/13 03:05:21;;;;;;;2.40;2.20;;;21.90;84.30;;;;;;4996708;28;20831;-91
2023/05/13 03:07:47;;;;;;;2.20;2.00;;;21.90;84.40;;;;;;4997410;28;20476;-92
2023/05/13 03:10:14;;;;;;;5.30;2.53;;;21.90;84.40;;;;;;4991148;28;20460;-88
2023/05/13 03:12:42;;;;;;;3.37;2.30;;;21.80;84.20;;;;;;4985262;28;20951;-91
2023/05/13 03:15:10;;;;;;;2.07;1.97;;;21.80;84.30;;;;;;4980850;28;20508;-80
2023/05/13 03:17:36;;;;;;;2.23;2.10;;;21.80;84.30;;;;;;4989187;28;20527;-91
2023/05/13 03:20:04;;;;;;;2.20;2.10;;;21.80;84.30;;;;;;4982111;28;20463;-92
2023/05/13 03:22:32;;;;;;;2.37;2.17;;;21.80;84.40;;;;;;4985627;28;20467;-89
2023/05/13 03:24:59;;;;;;;2.20;2.00;;;21.80;84.30;;;;;;4990635;28;20468;-91
2023/05/13 03:27:25;;;;;;;2.70;2.50;;;21.80;84.30;;;;;;4995944;28;21055;-93
2023/05/13 03:29:52;;;;;;;2.30;2.10;;;21.80;84.40;;;;;;4984483;28;20468;-87
2023/05/13 03:32:19;;;;;;;2.17;2.00;;;21.80;84.40;;;;;;4985501;28;20975;-90
2023/05/13 03:34:45;;;;;;;2.03;1.93;;;21.80;84.50;;;;;;4989562;28;20467;-89
2023/05/13 03:37:12;;;;;;;2.23;2.03;;;21.80;84.40;;;;;;4986428;28;20464;-86
2023/05/13 03:39:40;;;;;;;1.90;1.80;;;21.80;84.50;;;;;;4987931;28;20463;-90
2023/05/13 03:42:07;;;;;;;2.47;2.33;;;21.80;84.50;;;;;;4994687;28;20498;-92
2023/05/13 03:44:34;;;;;;;1.77;1.67;;;21.80;84.50;;;;;;4985804;28;20653;-87
2023/05/13 03:47:01;;;;;;;3.10;2.10;;;21.70;84.40;;;;;;4989133;28;20511;-89
2023/05/13 03:49:27;;;;;;;2.00;1.90;;;21.80;84.60;;;;;;4989469;28;20465;-90
2023/05/13 03:51:54;;;;;;;2.00;1.90;;;21.70;84.50;;;;;;4989226;28;20460;-81
2023/05/13 03:54:21;;;;;;;2.23;2.13;;;21.70;84.40;;;;;;4985089;28;20468;-88
2023/05/13 03:56:49;;;;;;;2.10;1.90;;;21.70;84.50;;;;;;4989444;28;20452;-90
2023/05/13 03:59:15;;;;;;;2.33;2.23;;;21.70;84.50;;;;;;4995967;28;21001;-89
2023/05/13 04:01:42;;;;;;;2.40;1.88;;;21.70;84.60;;;;;;4991476;28;20455;-88
2023/05/13 04:04:09;;;;;;;2.10;1.90;;;21.70;84.50;;;;;;4989664;28;20201;-86
2023/05/13 04:06:35;;;;;;;2.20;2.00;;;21.70;84.50;;;;;;4988801;28;20472;-87
2023/05/13 04:09:03;;;;;;;2.13;1.93;;;21.70;84.50;;;;;;4987521;28;20500;-90
2023/05/13 04:11:30;;;;;;;2.03;1.93;;;21.70;84.60;;;;;;4994544;28;20495;-90
2023/05/13 04:13:58;;;;;;;2.97;2.77;;;21.70;84.70;;;;;;4993423;28;20775;-88
2023/05/13 04:16:25;;;;;;;2.20;2.10;;;21.70;84.60;;;;;;4982737;28;20795;-87
2023/05/13 04:18:52;;;;;;;2.07;1.87;;;21.70;84.70;;;;;;4997261;28;20445;-90
2023/05/13 04:21:18;;;;;;;2.23;2.03;;;21.70;84.60;;;;;;4990267;28;20472;-90
2023/05/13 04:23:45;;;;;;;2.35;2.15;;;21.70;84.60;;;;;;4989183;28;20463;-85
2023/05/13 04:26:12;;;;;;;2.28;2.17;;;21.70;84.60;;;;;;4983392;28;20198;-81
2023/05/13 04:28:38;;;;;;;2.63;2.43;;;21.70;84.70;;;;;;4999070;28;20714;-79
2023/05/13 04:31:06;;;;;;;2.10;1.97;;;21.70;84.70;;;;;;4990590;28;20959;-86
2023/05/13 04:33:33;;;;;;;2.00;1.90;;;21.70;84.60;;;;;;4997344;28;20977;-83
2023/05/13 04:36:00;;;;;;;1.80;1.70;;;21.60;84.60;;;;;;4987139;28;20484;-88
2023/05/13 04:38:27;;;;;;;2.17;2.05;;;21.70;84.80;;;;;;4992409;28;20940;-89
2023/05/13 04:40:53;;;;;;;2.30;2.10;;;21.60;85.50;;;;;;4987571;28;20214;-89
2023/05/13 04:43:21;;;;;;;2.50;2.30;;;21.60;84.70;;;;;;5002190;28;20195;-87
2023/05/13 04:45:48;;;;;;;2.37;2.17;;;21.60;84.70;;;;;;4998403;28;20243;-89
2023/05/13 04:48:16;;;;;;;2.30;2.10;;;21.60;84.70;;;;;;5001315;28;20817;-91
2023/05/13 04:50:46;;;;;;;2.47;2.28;;;21.60;84.70;;;;;;4998147;28;20328;-81
2023/05/13 04:53:12;;;;;;;2.13;2.03;;;21.60;84.70;;;;;;5002399;28;20197;-89
2023/05/13 04:55:39;;;;;;;2.03;1.90;;;21.60;84.80;;;;;;5001955;28;20456;-86
2023/05/13 04:58:06;;;;;;;2.40;2.20;;;21.60;84.80;;;;;;4989007;28;20561;-87
2023/05/13 05:00:33;;;;;;;1.93;1.83;;;21.60;84.80;;;;;;4993217;28;20464;-88
2023/05/13 05:03:00;;;;;;;1.92;1.83;;;21.60;84.90;;;;;;4991642;28;20440;-88
2023/05/13 05:05:28;;;;;;;2.80;2.60;;;21.60;84.80;;;;;;4988806;28;20206;-87
2023/05/13 05:07:54;;;;;;;2.03;1.93;;;21.60;84.80;;;;;;4992311;28;20214;-84
2023/05/13 05:10:21;;;;;;;2.00;1.90;;;21.60;84.80;;;;;;4992321;28;20470;-86
2023/05/13 05:12:48;;;;;;;1.80;1.70;;;21.60;84.80;;;;;;4984570;28;20210;-84
2023/05/13 05:15:15;;;;;;;1.60;1.50;;;21.60;84.90;;;;;;4988466;28;20496;-88
2023/05/13 05:17:42;;;;;;;2.50;2.30;;;21.60;84.90;;;;;;4991011;28;20201;-87
2023/05/13 05:20:09;;;;;;;1.90;1.80;;;21.60;84.90;;;;;;5000716;28;20456;-89
2023/05/13 05:22:40;;;;;;;1.90;1.80;;;21.50;84.90;;;;;;4996617;28;20204;-88
2023/05/13 05:25:08;;;;;;;2.20;2.10;;;21.60;85.00;;;;;;4996734;28;20289;-89
2023/05/13 05:27:34;;;;;;;2.33;2.20;;;21.60;85.00;;;;;;4997981;28;20312;-89
2023/05/13 05:30:01;;;;;;;2.30;2.10;;;21.60;85.00;;;;;;5000896;28;20569;-89
2023/05/13 05:32:28;;;;;;;2.30;2.10;;;21.60;84.90;;;;;;5008323;28;20459;-89
2023/05/13 05:34:54;;;;;;;2.20;2.10;;;21.60;84.90;;;;;;5004347;28;20209;-88
2023/05/13 05:37:21;;;;;;;2.37;2.17;;;21.60;84.90;;;;;;5005789;28;20660;-87
2023/05/13 05:39:49;;;;;;;2.20;2.00;;;21.70;85.00;;;;;;4991000;28;20474;-83
2023/05/13 05:42:16;;;;;;;2.00;1.90;;;21.70;84.90;;;;;;4988140;28;20805;-88
2023/05/13 05:44:43;;;;;;;2.50;2.30;;;21.70;84.90;;;;;;4998053;28;20459;-83
2023/05/13 05:47:10;;;;;;;2.67;2.47;;;21.70;84.90;;;;;;4997837;28;20465;-90
2023/05/13 05:49:36;;;;;;;1.87;1.77;;;21.70;84.90;;;;;;4999431;28;20471;-86
2023/05/13 05:52:03;;;;;;;1.93;1.83;;;21.70;84.90;;;;;;4990146;28;20456;-90
2023/05/13 05:54:33;;;;;;;2.97;2.72;;;21.70;84.80;;;;;;4996832;28;20492;-88
2023/05/13 05:57:01;;;;;;;2.03;1.90;;;21.70;85.60;;;;;;4999374;28;20707;-90
2023/05/13 05:59:27;;;;;;;2.30;2.10;;;21.70;84.70;;;;;;4989712;28;20649;-89
2023/05/13 06:01:54;;;;;;;2.10;2.00;;;21.70;84.60;;;;;;4991167;28;20300;-82
2023/05/13 06:04:21;;;;;;;2.30;2.10;;;21.70;84.70;;;;;;4986395;28;20649;-90
2023/05/13 06:06:48;;;;;;;2.17;1.97;;;21.80;84.80;;;;;;4991960;28;20699;-90
2023/05/13 06:09:14;;;;;;;2.20;2.00;;;21.80;84.70;;;;;;4990078;28;20492;-87
2023/05/13 06:11:41;;;;;;;2.00;1.90;;;21.80;84.70;;;;;;4994084;28;20598;-90
2023/05/13 06:14:09;;;;;;;1.80;1.70;;;21.80;84.60;;;;;;4996170;28;20464;-85
2023/05/13 06:16:36;;;;;;;1.90;1.80;;;21.80;84.50;;;;;;4984235;28;20464;-90
2023/05/13 06:19:03;;;;;;;2.03;1.90;;;21.80;84.60;;;;;;4992898;28;20452;-89
2023/05/13 06:21:30;;;;;;;2.37;2.17;;;21.80;84.50;;;;;;4993209;28;20961;-81
2023/05/13 06:23:57;;;;;;;2.00;1.90;;;21.80;84.50;;;;;;4987916;28;20464;-87
2023/05/13 06:26:24;;;;;;;2.17;2.07;;;21.80;84.40;;;;;;4990163;28;20453;-86
2023/05/13 06:28:51;;;;;;;2.13;1.93;;;21.80;84.50;;;;;;4991673;28;21017;-87
2023/05/13 06:31:19;;;;;;;2.07;1.97;;;21.80;84.40;;;;;;4983488;28;20475;-88
2023/05/13 06:33:46;;;;;;;1.83;1.70;;;21.80;84.40;;;;;;4993198;28;20711;-85
2023/05/13 06:36:12;;;;;;;2.47;1.70;;;21.80;85.10;;;;;;4994215;28;20479;-85
2023/05/13 06:38:39;;;;;;;2.60;2.40;;;21.80;84.30;;;;;;4988978;28;21033;-88
2023/05/13 06:41:06;;;;;;;2.07;1.93;;;21.80;84.30;;;;;;4988603;28;20500;-88
2023/05/13 06:43:33;;;;;;;2.63;2.47;;;21.90;84.40;;;;;;4995578;28;20452;-87
2023/05/13 06:45:59;;;;;;;2.30;2.10;;;21.90;84.40;;;;;;4990165;28;20478;-89
2023/05/13 06:48:28;;;;;;;2.00;1.90;;;21.90;84.40;;;;;;4994106;28;20595;-85
2023/05/13 06:50:54;;;;;;;2.17;1.97;;;21.90;84.30;;;;;;4990034;28;20465;-88
2023/05/13 06:53:21;;;;;;;2.30;2.10;;;21.80;84.20;;;;;;4992200;28;20464;-91
2023/05/13 06:55:48;;;;;;;2.00;1.90;;;21.90;84.30;;;;;;4989019;28;20457;-90
2023/05/13 06:58:14;;;;;;;2.00;1.80;;;21.90;84.30;;;;;;4984883;28;20982;-88
2023/05/13 07:00:41;;;;;;;2.50;2.10;;;21.90;84.30;;;;;;4988870;28;20455;-91
2023/05/13 07:03:08;;;;;;;2.00;1.90;;;21.90;84.30;;;;;;4989429;28;20461;-88
2023/05/13 07:05:36;;;;;;;2.00;1.90;;;21.80;84.20;;;;;;4984183;28;20460;-89
2023/05/13 07:08:05;;;;;;;1.70;1.60;;;21.90;84.30;;;;;;4987856;28;20476;-91
2023/05/13 07:10:32;;;;;;;2.30;2.10;;;21.90;84.30;;;;;;4986356;28;20459;-83
2023/05/13 07:12:59;;;;;;;2.10;1.90;;;21.90;84.30;;;;;;4982916;28;20456;-90
2023/05/13 07:15:26;;;;;;;2.27;2.07;;;21.80;84.20;;;;;;4989501;28;20461;-91
2023/05/13 07:17:52;;;;;;;2.90;2.70;;;21.90;84.30;;;;;;4991804;28;20471;-87
2023/05/13 07:20:21;;;;;;;2.23;2.03;;;21.80;84.10;;;;;;4987890;28;20460;-85
2023/05/13 07:22:49;;;;;;;1.80;1.70;;;21.90;84.20;;;;;;5000460;28;20835;-92
2023/05/13 07:25:16;;;;;;;2.20;1.87;;;21.80;84.90;;;;;;4988473;28;20456;-90
2023/05/13 07:27:43;;;;;;;1.83;1.73;;;21.80;84.00;;;;;;4995225;28;20464;-86
2023/05/13 07:30:11;;;;;;;1.97;1.87;;;21.80;84.10;;;;;;4986184;28;20856;-90
2023/05/13 07:32:38;;;;;;;2.30;2.10;;;21.80;84.20;;;;;;4985162;28;20827;-82
2023/05/13 07:35:05;;;;;;;1.87;1.73;;;21.90;84.50;;;;;;4985301;28;20452;-83
2023/05/13 07:37:32;;;;;;;1.80;1.70;;;21.90;84.60;;;;;;4979976;28;20493;-80
2023/05/13 07:40:00;;;;;;;2.00;1.90;;;21.90;84.50;;;;;;4984453;28;21106;-81
2023/05/13 07:42:28;;;;;;;1.80;1.70;;;21.90;84.50;;;;;;4988247;28;20463;-81
2023/05/13 07:44:55;;;;;;;1.40;1.30;;;22.00;84.60;;;;;;4993012;28;20459;-81
2023/05/13 07:47:22;;;;;;;1.90;1.80;;;22.00;84.50;;;;;;4991781;28;20488;-79
2023/05/13 07:49:49;;;;;;;2.13;2.03;;;21.90;84.30;;;;;;4993565;28;20479;-80
2023/05/13 07:52:17;;;;;;;4.90;2.30;;;22.00;84.40;;;;;;5002501;28;20482;-81
2023/05/13 07:54:44;;;;;;;1.80;1.70;;;22.00;84.50;;;;;;4984264;28;20636;-81
2023/05/13 07:57:12;;;;;;;3.03;2.83;;;22.00;84.60;;;;;;4992687;28;20979;-79
2023/05/13 07:59:39;;;;;;;2.60;2.40;;;22.00;84.70;;;;;;4996764;28;20460;-80
2023/05/13 08:02:07;;;;;;;2.17;1.93;;;22.00;84.80;;;;;;4992220;28;20456;-83
2023/05/13 08:04:34;;;;;;;3.77;3.47;;;22.00;85.30;;;;;;4988316;28;20547;-83
2023/05/13 08:07:01;;;;;;;2.73;2.53;;;22.00;85.20;;;;;;4989591;28;20965;-83
2023/05/13 08:09:28;;;;;;;3.37;2.37;;;22.00;85.10;;;;;;4991332;28;20486;-82
2023/05/13 08:11:55;;;;;;;9.60;2.70;;;22.00;85.00;;;;;;4992455;28;20445;-81
2023/05/13 08:14:23;;;;;;;3.30;2.60;;;22.00;85.20;;;;;;4988741;28;20465;-84
2023/05/13 08:16:49;;;;;;;2.80;2.60;;;22.00;85.20;;;;;;4987858;28;20458;-80
2023/05/13 08:19:16;;;;;;;6.70;2.70;;;22.00;85.10;;;;;;4994626;28;20459;-84
2023/05/13 08:21:43;;;;;;;2.30;2.20;;;22.00;85.00;;;;;;4991995;28;20668;-82
2023/05/13 08:24:13;;;;;;;6.90;2.30;;;22.00;85.00;;;;;;4986905;28;20482;-81
2023/05/13 08:26:39;;;;;;;3.20;2.33;;;22.00;85.10;;;;;;4991847;28;20456;-81
2023/05/13 08:29:06;;;;;;;5.50;2.90;;;22.00;85.30;;;;;;4994453;28;20495;-80
2023/05/13 08:31:34;;;;;;;6.30;2.93;;;22.00;85.30;;;;;;4987359;28;20464;-81
2023/05/13 08:34:01;;;;;;;4.43;3.27;;;22.00;85.10;;;;;;4991658;28;21608;-81
2023/05/13 08:36:28;;;;;;;3.70;3.17;;;22.00;84.90;;;;;;4992588;28;20483;-82
2023/05/13 08:38:55;;;;;;;3.67;2.97;;;22.00;84.10;;;;;;4986243;28;20556;-78
2023/05/13 08:41:22;;;;;;;3.43;2.60;;;21.90;84.40;;;;;;4992195;28;20460;-79
2023/05/13 08:43:51;;;;;;;3.67;3.37;;;22.00;84.20;;;;;;4999767;28;20967;-81
2023/05/13 08:46:19;;;;;;;5.87;3.30;;;22.00;84.30;;;;;;4990401;28;20471;-80
2023/05/13 08:48:48;;;;;;;3.13;2.93;;;22.00;84.30;;;;;;4992149;28;20480;-85
2023/05/13 08:51:15;;;;;;;2.70;2.50;;;22.00;84.30;;;;;;4996538;28;20459;-90
2023/05/13 08:53:43;;;;;;;3.43;2.73;;;22.00;84.40;;;;;;4994214;28;20839;-83
2023/05/13 08:56:11;;;;;;;2.53;2.33;;;22.00;84.50;;;;;;4987327;28;20511;-82
2023/05/13 08:58:37;;;;;;;3.10;2.80;;;22.10;84.60;;;;;;4985443;28;20462;-82
2023/05/13 09:01:07;;;;;;;3.10;2.70;;;22.10;84.50;;;;;;4986965;28;20495;-81
2023/05/13 09:03:35;;;;;;;3.97;2.80;;;22.10;84.40;;;;;;4990314;28;20460;-82
2023/05/13 09:06:04;;;;;;;2.60;2.40;;;22.10;84.30;;;;;;4992955;28;20816;-82
2023/05/13 09:08:31;;;;;;;2.97;2.20;;;22.10;84.20;;;;;;4992617;28;20466;-81
2023/05/13 09:10:58;;;;;;;2.57;2.37;;;22.20;84.30;;;;;;4988084;28;21040;-81
2023/05/13 09:13:25;;;;;;;3.40;2.80;;;22.20;84.20;;;;;;4990031;28;20944;-81
2023/05/13 09:15:52;;;;;;;2.90;2.70;;;22.20;84.10;;;;;;4994477;28;20475;-82
2023/05/13 09:18:18;;;;;;;2.53;2.33;;;22.20;84.10;;;;;;4990724;28;20959;-82
2023/05/13 09:20:45;;;;;;;2.87;2.63;;;22.20;84.00;;;;;;4994015;28;20474;-82
2023/05/13 09:23:14;;;;;;;2.60;2.40;;;22.20;84.00;;;;;;4991379;28;20561;-83
2023/05/13 09:25:41;;;;;;;2.03;1.87;;;22.20;84.00;;;;;;4988472;28;20858;-82
2023/05/13 09:28:08;;;;;;;2.73;2.00;;;22.20;83.90;;;;;;4992530;28;20483;-82
2023/05/13 09:30:39;;;;;;;2.50;2.20;;;22.20;84.60;;;;;;4979625;28;20480;-81
2023/05/13 09:33:08;;;;;;;3.47;2.30;;;22.20;83.70;;;;;;4982063;28;20460;-81
2023/05/13 09:35:36;;;;;;;2.70;2.50;;;22.30;83.80;;;;;;4991202;28;20456;-82
2023/05/13 09:38:14;;;;;;;2.73;2.53;;;22.30;83.70;;;;;;4992098;28;20484;-81
2023/05/13 09:40:41;;;;;;;2.67;2.47;;;22.30;83.60;;;;;;4990713;28;20984;-82
2023/05/13 09:43:08;;;;;;;3.20;3.00;;;22.30;83.60;;;;;;4987685;28;21022;-81
2023/05/13 09:45:36;;;;;;;3.03;2.83;;;22.30;83.50;;;;;;4985363;28;20451;-81
2023/05/13 09:48:03;;;;;;;2.67;2.47;;;22.30;83.50;;;;;;4990590;28;20970;-82
2023/05/13 09:50:31;;;;;;;3.13;2.47;;;22.30;83.50;;;;;;4996610;28;20483;-81
2023/05/13 09:52:58;;;;;;;5.70;2.40;;;22.30;83.50;;;;;;4991666;28;20966;-84
2023/05/13 09:55:29;;;;;;;2.30;2.17;;;22.30;83.50;;;;;;4977650;28;20479;-90
2023/05/13 09:57:56;;;;;;;4.10;2.60;;;22.30;83.40;;;;;;4992587;28;21013;-90
2023/05/13 10:00:22;;;;;;;4.43;2.70;;;22.30;83.20;;;;;;4986946;28;20450;-86
2023/05/13 10:02:50;;;;;;;4.50;2.93;;;22.30;82.30;;;;;;4990335;28;20470;-89
2023/05/13 10:05:17;;;;;;;2.90;2.50;;;22.40;82.10;;;;;;4998035;28;20970;-88
2023/05/13 10:07:44;;;;;;;2.70;2.50;;;22.40;81.20;;;;;;4990167;28;20480;-88
2023/05/13 10:10:12;;;;;;;5.90;3.10;;;22.40;80.90;;;;;;4982788;28;20495;-91
2023/05/13 10:12:41;;;;;;;3.67;3.37;;;22.40;80.40;;;;;;4992478;28;20444;-88
2023/05/13 10:15:09;;;;;;;5.33;3.70;;;22.40;78.20;;;;;;4984270;28;20512;-85
2023/05/13 10:17:36;;;;;;;5.10;3.90;;;22.40;78.40;;;;;;4984959;28;20946;-86
2023/05/13 10:20:06;;;;;;;3.67;3.37;;;22.40;77.70;;;;;;4990740;28;20959;-85
2023/05/13 10:22:34;;;;;;;4.10;3.23;;;22.50;77.00;;;;;;4983572;28;20489;-83
2023/05/13 10:25:03;;;;;;;3.40;3.10;;;22.50;77.10;;;;;;4983202;28;20496;-83
2023/05/13 10:27:33;;;;;;;3.60;3.30;;;22.50;76.30;;;;;;4986539;28;20487;-83
2023/05/13 10:30:04;;;;;;;4.17;3.50;;;22.50;75.90;;;;;;4994055;28;20480;-83
2023/05/13 10:32:31;;;;;;;4.57;4.17;;;22.50;75.50;;;;;;4994390;28;20467;-83
2023/05/13 10:35:04;;;;;;;3.63;3.37;;;22.60;75.70;;;;;;4989417;28;20955;-83
2023/05/13 10:37:47;;;;;;;3.47;3.17;;;22.60;75.40;;;;;;4990141;28;20480;-84
2023/05/13 10:40:53;;;;;;;8.73;3.27;;;22.60;75.20;;;;;;4987859;28;20472;-81
2023/05/13 10:43:21;;;;;;;4.10;3.23;;;22.60;74.60;;;;;;4980069;28;20460;-82
2023/05/13 10:45:52;;;;;;;3.23;2.93;;;22.70;74.50;;;;;;4987762;28;20950;-82
2023/05/13 10:48:19;;;;;;;3.50;3.20;;;22.70;74.40;;;;;;4988354;28;20460;-82
2023/05/13 10:50:53;;;;;;;2.80;2.60;;;22.70;74.40;;;;;;4991815;28;20480;-82
2023/05/13 10:53:25;;;;;;;7.57;3.37;;;22.70;74.00;;;;;;4980073;28;20465;-82
2023/05/13 10:55:56;;;;;;;6.17;4.23;;;22.70;73.50;;;;;;4993005;28;20992;-83
2023/05/13 10:58:29;;;;;;;4.47;3.33;;;22.70;73.30;;;;;;4991063;28;20461;-81
2023/05/13 11:01:14;;;;;;;4.63;3.00;;;22.80;73.30;;;;;;4983847;28;20978;-82
2023/05/13 11:03:41;;;;;;;3.80;3.40;;;22.80;73.30;;;;;;4987072;28;20469;-82
2023/05/13 11:06:19;;;;;;;4.77;3.50;;;22.80;73.30;;;;;;4992814;28;20817;-80
2023/05/13 11:08:46;;;;;;;5.50;3.23;;;22.80;72.90;;;;;;4986222;28;20452;-81
2023/05/13 11:11:25;;;;;;;7.00;3.10;;;22.80;72.70;;;;;;4991108;28;20491;-82
2023/05/13 11:13:52;;;;;;;4.80;2.93;;;22.80;72.50;;;;;;4990515;28;20459;-82
2023/05/13 11:16:21;;;;;;;6.07;4.07;;;22.80;72.00;;;;;;4988531;28;20480;-82
2023/05/13 11:18:48;;;;;;;5.13;3.00;;;22.80;72.30;;;;;;4991065;28;20828;-81
2023/05/13 11:21:15;;;;;;;3.93;3.53;;;22.90;71.90;;;;;;4989866;28;20464;-84
2023/05/13 11:23:53;;;;;;;3.80;3.40;;;22.90;71.90;;;;;;4994498;28;20468;-82
2023/05/13 11:26:20;;;;;;;3.80;3.47;;;22.90;71.40;;;;;;4988950;28;20836;-82
2023/05/13 11:28:54;;;;;;;3.50;3.00;;;22.90;71.60;;;;;;4989727;28;20479;-81
2023/05/13 11:31:22;;;;;;;4.47;3.57;;;22.90;71.50;;;;;;4985165;28;20990;-80
2023/05/13 11:34:10;;;;;;;3.40;2.80;;;22.90;71.20;;;;;;4991066;28;20464;-85
2023/05/13 11:36:38;;;;;;;4.37;3.00;;;22.90;70.90;;;;;;4984741;28;20495;-85
2023/05/13 11:39:06;;;;;;;3.50;3.20;;;22.90;70.90;;;;;;4983785;28;20461;-85
2023/05/13 11:41:33;;;;;;;3.67;3.37;;;22.90;71.40;;;;;;4984663;28;20469;-85
2023/05/13 11:44:02;;;;;;;3.20;2.97;;;22.90;71.70;;;;;;4992647;28;20456;-85
2023/05/13 11:46:30;;;;;;;3.03;2.67;;;23.00;72.20;;;;;;4982199;28;20472;-85
2023/05/13 11:48:56;;;;;;;3.80;2.73;;;22.90;72.10;;;;;;4981865;28;20460;-87
2023/05/13 11:51:24;;;;;;;4.33;2.80;;;23.00;72.80;;;;;;4983688;28;21044;-84
2023/05/13 11:53:52;;;;;;;4.57;3.43;;;23.00;75.00;;;;;;4991478;28;20448;-84
2023/05/13 11:56:18;;;;;;;7.47;3.07;;;23.00;76.20;;;;;;4984177;28;20465;-85
2023/05/13 11:58:46;;;;;;;3.73;3.43;;;23.00;75.80;;;;;;4987338;28;20472;-90
2023/05/13 12:01:14;;;;;;;5.57;3.20;;;23.00;76.50;;;;;;4986229;28;20488;-88
2023/05/13 12:03:44;;;;;;;5.80;3.33;;;23.00;76.80;;;;;;4981369;28;20463;-93
2023/05/13 12:06:12;;;;;;;5.20;3.03;;;22.90;76.70;;;;;;4990337;28;20482;-89
2023/05/13 12:08:44;;;;;;;5.60;2.77;;;22.90;76.80;;;;;;4993296;28;20583;-91
2023/05/13 12:11:12;;;;;;;5.20;2.97;;;22.90;76.90;;;;;;4987828;28;20913;-86
2023/05/13 12:13:39;;;;;;;3.80;2.73;;;22.90;76.90;;;;;;4985083;28;20460;-93
2023/05/13 12:16:07;;;;;;;3.50;3.20;;;22.90;77.10;;;;;;4982581;28;20480;-83
2023/05/13 12:18:34;;;;;;;4.47;2.87;;;22.90;77.20;;;;;;4984368;28;20449;-86
2023/05/13 12:21:14;;;;;;;5.83;2.90;;;23.00;77.30;;;;;;4982953;28;20474;-88
2023/05/13 12:23:40;;;;;;;2.70;2.50;;;22.90;77.00;;;;;;4983657;28;20464;-88
2023/05/13 12:26:07;;;;;;;3.80;2.20;;;23.00;77.40;;;;;;4978178;28;20457;-88
2023/05/13 12:28:34;;;;;;;3.63;2.60;;;23.00;77.60;;;;;;4986436;28;20456;-87
2023/05/13 12:31:03;;;;;;;3.20;2.60;;;23.00;77.60;;;;;;4980252;28;20492;-85
2023/05/13 12:33:31;;;;;;;3.53;3.23;;;22.90;77.50;;;;;;4981624;28;20460;-86
2023/05/13 12:36:19;;;;;;;3.57;2.40;;;22.90;77.50;;;;;;4987620;28;20480;-85
2023/05/13 12:38:56;;;;;;;2.77;2.57;;;22.90;77.50;;;;;;4975679;28;20511;-83
2023/05/13 12:41:25;;;;;;;3.60;2.60;;;22.90;77.50;;;;;;4986056;28;20483;-84
2023/05/13 12:43:56;;;;;;;3.40;3.10;;;22.90;77.60;;;;;;4982863;28;20867;-84
2023/05/13 12:46:23;;;;;;;3.10;2.87;;;22.90;77.60;;;;;;4980666;28;20465;-84
2023/05/13 12:48:52;;;;;;;2.63;2.43;;;23.00;77.50;;;;;;4990555;28;20472;-87
2023/05/13 12:51:20;;;;;;;3.27;3.03;;;22.90;77.40;;;;;;4985423;28;20489;-85